Latest Coastal Weather Observations for Smithton

IDV60701

Issued at 9:01 am EDT Monday 8 February 2016 (issued every 10 minutes, with the page automatically refreshed every 10 minutes)

About coastal observations | Map of coastal stations | Coastal observations for VIC | Marine services | Other Formats
Station Details ID: 091292 Name: SMITHTON AERODROME Lat: -40.83 Lon: 145.08 Height: 7.5 m
Data from the previous 72 hours. | See also: Recent months at Smithton
Date/Time
EDT
Temp

°C
Wind Pressure Rain
since 9am
mm
Weather Cloud Vis
km
Sea
Height
m
Swell
Dir
 
Speed
knots
Gust
knots
hPa Trend Height
m
Period
s
Dir
08/09:00am 18.0 SW 13 16 1021.0 - 0.0 - - - - - - -
08/08:30am 17.3 SW 12 16 1020.7 - 0.0 - - - - - - -
08/08:00am 16.7 WSW 8 11 1020.5 - 0.0 - - - - - - -
08/07:30am 15.7 NW 6 9 1020.1 - 0.0 - - - - - - -
08/07:00am 14.3 N 7 8 1019.9 - 0.0 - - - - - - -
08/06:30am 14.1 N 3 4 1019.3 - 0.0 - - - - - - -
08/06:00am 14.2 N 6 7 1019.0 - 0.0 - - - - - - -
08/05:30am 13.1 N 5 6 1018.7 - 0.0 - - - - - - -
08/05:00am 13.2 N 7 8 1018.5 - 0.0 - - - - - - -
08/04:30am 12.6 N 6 6 1018.5 - 0.0 - - - - - - -
08/04:00am 12.9 N 6 7 1018.6 - 0.0 - - - - - - -
08/03:30am 13.2 N 5 6 1018.6 - 0.0 - - - - - - -
08/03:00am 14.0 N 4 5 1018.6 - 0.0 - - - - - - -
08/02:30am 14.4 N 4 4 1018.6 - 0.0 - - - - - - -
08/02:00am 15.2 N 3 4 1018.8 - 0.0 - - - - - - -
08/01:30am 14.8 N 4 5 1018.7 - 0.0 - - - - - - -
08/01:00am 14.2 N 4 5 1018.6 - 0.0 - - - - - - -
08/12:30am 15.7 N 5 6 1018.4 - 0.0 - - - - - - -
08/12:00am 15.7 CALM 0 0 1018.4 - 0.0 - - - - - - -
 
Date/Time
EDT
Temp

°C
Wind Pressure Rain
since 9am
mm
Weather Cloud Vis
km
Sea
Height
m
Swell
Dir
 
Speed
knots
Gust
knots
hPa Trend Height
m
Period
s
Dir
07/11:30pm 16.2 CALM 0 0 1018.4 - 0.0 - - - - - - -
07/11:00pm 17.4 CALM 0 0 1018.5 - 0.0 - - - - - - -
07/10:30pm 17.4 N 1 3 1018.5 - 0.0 - - - - - - -
07/10:00pm 17.1 N 4 5 1018.6 - 0.0 - - - - - - -
07/09:30pm 16.6 N 4 4 1018.2 - 0.0 - - - - - - -
07/09:00pm 18.5 N 1 2 1017.8 - 0.0 - - - - - - -
07/08:30pm 19.0 N 4 5 1017.6 - 0.0 - - - - - - -
07/08:00pm 20.0 N 5 6 1017.3 - 0.0 - - - - - - -
07/07:30pm 20.5 NNE 7 10 1017.0 - 0.0 - - - - - - -
07/07:00pm 21.1 NNE 7 10 1017.1 - 0.0 - - - - - - -
07/06:30pm 21.8 NNE 8 10 1017.1 - 0.0 - - - - - - -
07/06:00pm 22.7 NNE 10 14 1016.9 - 0.0 - - - - - - -
07/05:30pm 22.5 NE 11 15 1016.7 - 0.0 - - - - - - -
07/05:00pm 23.1 NE 10 14 1017.0 - 0.0 - - - - - - -
07/04:30pm 23.7 NNE 12 16 1017.0 - 0.0 - - - - - - -
07/04:00pm 22.9 NNE 13 17 1017.0 - 0.0 - - - - - - -
07/03:30pm 24.5 NNE 13 16 1017.2 - 0.0 - - - - - - -
07/03:00pm 23.7 NE 14 17 1017.2 - 0.0 - - - - - - -
07/02:30pm 24.3 NNE 14 18 1017.4 - 0.0 - - - - - - -
07/02:00pm 24.4 NNE 13 17 1017.6 - 0.0 - - - - - - -
07/01:30pm 23.9 NE 13 18 1017.5 - 0.0 - - - - - - -
07/01:00pm 23.3 ENE 15 18 1017.5 - 0.0 - - - - - - -
07/12:30pm 23.8 NE 16 21 1017.6 - 0.0 - - - - - - -
07/12:00pm 23.5 NE 16 21 1017.8 - 0.0 - - - - - - -
07/11:30am 22.0 NE 14 18 1017.9 - 0.0 - - - - - - -
07/11:00am 21.7 ENE 13 17 1018.0 - 0.0 - - - - - - -
07/10:30am 21.9 ENE 13 17 1017.8 - 0.0 - - - - - - -
07/10:00am 20.9 ENE 15 19 1017.5 - 0.0 - - - - - - -
07/09:30am 21.6 ENE 13 16 1017.5 - 0.0 - - - - - - -
07/09:00am 20.7 ENE 12 18 1017.6 - 0.0 - - - - - - -
07/08:30am 20.0 ENE 10 13 1017.4 - 0.0 - - - - - - -
07/08:00am 19.2 E 8 11 1017.2 - 0.0 - - - - - - -
07/07:30am 18.4 E 8 9 1017.1 - 0.0 - - - - - - -
07/07:00am 18.0 E 7 9 1017.0 - 0.0 - - - - - - -
07/06:30am 17.8 E 7 10 1017.0 - 0.0 - - - - - - -
07/06:00am 17.9 E 8 11 1016.6 - 0.0 - - - - - - -
07/05:30am 18.1 ENE 9 13 1016.2 - 0.0 - - - - - - -
07/05:00am 18.1 E 10 14 1016.1 - 0.0 - - - - - - -
07/04:30am 18.3 ENE 11 14 1016.0 - 0.0 - - - - - - -
07/04:00am 18.3 ENE 11 14 1016.2 - 0.0 - - - - - - -
07/03:30am 18.5 ENE 11 14 1016.5 - 0.0 - - - - - - -
07/03:00am 18.6 ENE 8 11 1016.9 - 0.0 - - - - - - -
07/02:30am 19.0 ENE 10 12 1017.2 - 0.0 - - - - - - -
07/02:00am 19.1 ENE 9 13 1017.4 - 0.0 - - - - - - -
07/01:30am 19.2 ENE 9 13 1017.6 - 0.0 - - - - - - -
07/01:00am 19.1 ENE 9 13 1017.5 - 0.0 - - - - - - -
07/12:30am 18.8 ENE 10 14 1017.4 - 0.0 - - - - - - -
07/12:00am 19.0 ENE 11 15 1017.4 - 0.0 - - - - - - -
 
Date/Time
EDT
Temp

°C
Wind Pressure Rain
since 9am
mm
Weather Cloud Vis
km
Sea
Height
m
Swell
Dir
 
Speed
knots
Gust
knots
hPa Trend Height
m
Period
s
Dir
06/11:30pm 19.1 ENE 11 16 1017.6 - 0.0 - - - - - - -
06/11:00pm 19.1 ENE 10 15 1017.7 - 0.0 - - - - - - -
06/10:30pm 19.2 E 12 16 1017.8 - 0.0 - - - - - - -
06/10:00pm 18.9 E 11 14 1017.8 - 0.0 - - - - - - -
06/09:30pm 18.5 E 9 13 1017.7 - 0.0 - - - - - - -
06/09:00pm 18.8 E 12 16 1017.4 - 0.0 - - - - - - -
06/08:30pm 19.2 E 11 16 1017.3 - 0.0 - - - - - - -
06/08:00pm 19.9 E 14 19 1017.2 - 0.0 - - - - - - -
06/07:30pm 20.5 ENE 14 19 1017.2 - 0.0 - - - - - - -
06/07:00pm 21.0 ENE 13 19 1017.2 - 0.0 - - - - - - -
06/06:30pm 21.1 ENE 16 22 1017.2 - 0.0 - - - - - - -
06/06:00pm 21.8 ENE 16 21 1017.1 - 0.0 - - - - - - -
06/05:30pm 21.5 E 17 23 1017.2 - 0.0 - - - - - - -
06/05:00pm 22.4 E 17 24 1017.1 - 0.0 - - - - - - -
06/04:30pm 23.2 E 17 23 1017.2 - 0.0 - - - - - - -
06/04:00pm 22.5 ENE 17 21 1017.6 - 0.0 - - - - - - -
06/03:30pm 22.8 ENE 16 22 1017.8 - 0.0 - - - - - - -
06/03:00pm 23.1 E 16 23 1018.1 - 0.0 - - - - - - -
06/02:30pm 23.2 E 16 21 1018.5 - 0.0 - - - - - - -
06/02:00pm 22.6 ENE 16 23 1018.9 - 0.0 - - - - - - -
06/01:30pm 22.4 ENE 16 24 1019.1 - 0.0 - - - - - - -
06/01:00pm 22.8 ENE 18 24 1018.9 - 0.0 - - - - - - -
06/12:30pm 22.7 ENE 16 22 1019.4 - 0.0 - - - - - - -
06/12:00pm 22.3 ENE 18 24 1019.4 - 0.0 - - - - - - -
06/11:30am 21.5 ENE 17 22 1019.8 - 0.0 - - - - - - -
06/11:00am 20.4 ENE 17 25 1019.9 - 0.0 - - - - - - -
06/10:30am 21.2 ENE 16 22 1020.0 - 0.0 - - - - - - -
06/10:00am 20.7 ENE 15 20 1020.2 - 0.0 - - - - - - -
06/09:30am 20.4 NE 14 19 1020.6 - 0.0 - - - - - - -
06/09:00am 21.0 ENE 14 19 1020.5 - 0.0 - - - - - - -
06/08:30am 19.6 ENE 15 19 1020.3 - 0.0 - - - - - - -
06/08:00am 19.9 ENE 14 19 1020.1 - 0.0 - - - - - - -
06/07:30am 19.2 ENE 12 17 1019.7 - 0.0 - - - - - - -
06/07:00am 18.6 ENE 14 19 1019.5 - 0.0 - - - - - - -
06/06:30am 19.0 ENE 12 17 1019.3 - 0.0 - - - - - - -
06/06:00am 19.0 NE 14 19 1019.3 - 0.0 - - - - - - -
06/05:30am 18.7 NE 13 18 1019.2 - 0.0 - - - - - - -
06/05:00am 18.7 NE 10 14 1019.3 - 0.0 - - - - - - -
06/04:30am 17.7 ENE 5 8 1019.6 - 0.0 - - - - - - -
06/04:00am 17.1 ENE 4 5 1019.6 - 0.0 - - - - - - -
06/03:30am 16.7 ENE 5 6 1020.1 - 0.0 - - - - - - -
06/03:00am 15.8 ENE 5 6 1020.5 - 0.0 - - - - - - -
06/02:30am 16.1 ENE 5 6 1020.8 - 0.0 - - - - - - -
06/02:00am 15.7 ENE 4 5 1021.1 - 0.0 - - - - - - -
06/01:30am 16.2 ENE 5 5 1021.4 - 0.0 - - - - - - -
06/01:00am 17.0 ENE 5 5 1021.7 - 0.0 - - - - - - -
06/12:30am 17.7 NNE 4 5 1021.9 - 0.0 - - - - - - -
06/12:00am 18.0 NNE 1 3 1021.9 - 0.0 - - - - - - -
 
Date/Time
EDT
Temp

°C
Wind Pressure Rain
since 9am
mm
Weather Cloud Vis
km
Sea
Height
m
Swell
Dir
 
Speed
knots
Gust
knots
hPa Trend Height
m
Period
s
Dir
05/11:30pm 17.5 NNE 3 4 1021.9 - 0.0 - - - - - - -
05/11:00pm 17.3 NNE 4 4 1022.1 - 0.0 - - - - - - -
05/10:30pm 17.2 NNE 4 5 1022.3 - 0.0 - - - - - - -
05/10:00pm 17.8 NNE 1 4 1022.4 - 0.0 - - - - - - -
05/09:30pm 18.7 CALM 0 0 1022.2 - 0.0 - - - - - - -
05/09:00pm 19.4 CALM 0 0 1022.0 - 0.0 - - - - - - -
05/08:30pm 19.5 NNE 5 6 1021.8 - 0.0 - - - - - - -
05/08:00pm 19.8 N 6 8 1021.4 - 0.0 - - - - - - -
05/07:30pm 20.3 N 8 11 1021.2 - 0.0 - - - - - - -
05/07:00pm 20.9 NNE 8 11 1021.1 - 0.0 - - - - - - -
05/06:30pm 21.6 NNE 9 12 1021.1 - 0.0 - - - - - - -
05/06:00pm 21.8 NNE 11 14 1020.9 - 0.0 - - - - - - -
05/05:30pm 22.3 NNE 11 15 1021.1 - 0.0 - - - - - - -
05/05:00pm 22.6 NNE 12 15 1021.1 - 0.0 - - - - - - -
05/04:30pm 22.8 N 11 14 1021.3 - 0.0 - - - - - - -
05/04:00pm 22.7 N 11 15 1021.6 - 0.0 - - - - - - -
05/03:30pm 23.2 N 12 14 1021.6 - 0.0 - - - - - - -
05/03:00pm 22.9 NNE 11 14 1021.8 - 0.0 - - - - - - -
05/02:30pm 23.3 N 11 14 1022.1 - 0.0 - - - - - - -
05/02:00pm 23.6 N 9 11 1022.4 - 0.0 - - - - - - -
05/01:30pm 23.2 NNE 10 14 1022.7 - 0.0 - - - - - - -
05/01:00pm 22.8 NNE 9 11 1023.0 - 0.0 - - - - - - -
05/12:30pm 23.0 NNE 9 11 1023.3 - 0.0 - - - - - - -
05/12:00pm 22.3 NNE 8 12 1023.4 - 0.0 - - - - - - -
05/11:30am 21.6 N 8 9 1023.5 - 0.0 - - - - - - -
05/11:00am 21.2 NNE 8 11 1023.4 - 0.0 - - - - - - -
05/10:30am 20.5 NNE 7 9 1023.3 - 0.0 - - - - - - -
05/10:00am 21.0 N 6 9 1023.2 - 0.0 - - - - - - -
05/09:30am 20.2 S 2 5 1023.1 - 0.0 - - - - - - -

Other Formats:

Comma delimited format used in spreadsheet applications
http://www.bom.gov.au/fwo/IDV60701/IDV60701.94953.axf

JavaScript Object Notation format (JSON) in row-major order
http://www.bom.gov.au/fwo/IDV60701/IDV60701.94953.json